Station: Barimunya

  Atmospheric Gas Attenuation - ITU Rec 676-11   --------------- db/100km ---------------
Date Time Temp RH % AH g/m3 Dew Point Wind Direction Speed kph Gust kph Barometer mB Rainfall Since 9am 24GHz 47GHz 76GHz 122GHz 134GHz 241GHz
04 05:00 12.2 48 5.18 1.5 9 11 1010.4 0 12.4 21.0 27.4 71.3 57.0 193.3
04 04:50 12.3 48 5.21 1.6 9 9 1012.1 0 12.4 21.0 27.5 71.6 57.4 194.6
04 04:40 12.6 47 5.2 1.6 11 13 1012.1 0 12.4 21.0 27.4 71.3 57.1 193.5
04 04:30 12.7 46 5.12 1.4 11 13 1010.2 0 12.2 20.8 27.0 70.3 56.0 189.6
04 04:20 12.8 46 5.15 1.5 9 11 1012 0 12.3 20.8 27.1 70.6 56.4 190.9
04 04:10 12.6 45 4.98 1 7 9 1012 0 11.9 20.6 26.6 69.2 54.5 184.4
04 04:00 12.6 44 4.87 0.7 11 15 1010.2 0 11.7 20.4 26.2 68.0 53.1 179.6
04 03:40 12.6 43 4.76 0.4 11 13 1011.9 0 11.5 20.3 25.8 67.1 52.0 175.4
04 03:30 13 42 4.76 0.4 9 11 1010.1 0 11.5 20.2 25.6 66.7 51.6 174.3
04 03:20 13.4 41 4.77 0.4 11 11 1011.9 0 11.5 20.2 25.6 66.6 51.6 174.1
04 03:10 13.6 40 4.71 0.3 9 11 1011.9 0 11.3 20.0 25.4 65.9 50.8 171.3
04 03:00 13.9 39 4.68 0.2 9 13 1010.1 0 11.3 19.9 25.1 65.2 50.1 169.2
04 02:50 13.7 39 4.62 0 9 11 1012 0 11.1 19.9 25.0 65.0 49.7 167.5
04 02:40 13.7 39 4.62 0 4 7 1012 0 11.1 19.9 25.0 65.0 49.7 167.5
04 02:30 13.5 39 4.56 -0.2 6 9 1010.1 0 11.0 19.8 24.8 64.4 49.0 165.3
04 02:20 13.6 39 4.59 -0.1 7 9 1011.9 0 11.1 19.9 24.9 64.8 49.4 166.5
04 02:10 13.6 38 4.47 -0.4 7 9 1011.9 0 10.8 19.7 24.5 63.7 48.0 161.8
04 02:00 13.9 37 4.44 -0.5 11 13 1010.1 0 10.8 19.5 24.3 63.0 47.4 159.8
04 01:50 14.2 36 4.4 -0.6 11 11 1012 0 10.7 19.5 24.1 62.6 46.9 157.9
04 01:30 15 34 4.36 -0.7 11 13 1010.3 0 10.6 19.2 23.7 61.5 45.9 154.6
04 01:20 15.4 34 4.47 -0.4 9 11 1012.1 0 10.8 19.3 24.0 62.3 47.0 158.3
04 01:10 16 32 4.36 -0.7 13 17 1012.1 0 10.5 19.1 23.5 60.9 45.5 153.0
04 01:00 16.3 32 4.44 -0.4 13 17 1010.3 0 10.7 19.1 23.6 61.2 46.1 155.2
04 00:50 16.5 32 4.49 -0.2 13 15 1012.2 0 10.8 19.1 23.8 61.6 46.6 157.0
04 00:40 16.8 30 4.29 -0.9 17 20 1012.2 0 10.4 18.8 23.0 59.7 44.3 148.9
04 00:30 16.6 30 4.24 -1 13 17 1010.5 0 10.3 18.7 22.9 59.3 43.8 147.1
04 00:20 16.8 29 4.15 -1.3 15 17 1012.4 0 10.1 18.6 22.6 58.5 42.8 143.7
04 00:10 16.9 29 4.17 -1.2 13 15 1012.5 0 10.1 18.7 22.6 58.6 43.0 144.2
04 00:00 17.4 28 4.15 -1.3 15 19 1010.5 0 10.0 18.5 22.4 57.9 42.4 142.4
03 23:50 17.8 27 4.1 -1.4 15 17 1012.2 0 9.9 18.4 22.2 57.4 41.7 140.1
03 23:40 18.1 26 4.02 -1.7 20 22 1012.2 0 9.8 18.2 21.8 56.5 40.8 136.6
03 23:30 18 27 4.15 -1.3 15 22 1010.5 0 10.0 18.4 22.2 57.5 42.1 141.4
03 23:20 17.5 27 4.03 -1.7 15 15 1012.4 0 9.8 18.4 22.0 57.0 41.2 138.0
03 23:10 18.2 26 4.04 -1.6 15 17 1012.4 0 9.8 18.2 21.9 56.6 40.9 137.2
03 23:00 17.6 27 4.05 -1.6 13 17 1010.5 0 9.8 18.3 22.0 57.0 41.2 138.3
03 22:50 17.9 26 3.97 -1.9 13 13 1012.5 0 9.7 18.2 21.7 56.2 40.3 135.2
03 22:40 18 26 3.99 -1.8 11 13 1012.5 0 9.7 18.2 21.8 56.3 40.5 135.7
03 22:30 17.8 27 4.1 -1.4 11 13 1010.6 0 9.9 18.3 22.1 57.2 41.7 139.9
03 22:20 17.7 27 4.07 -1.5 9 11 1012.5 0 9.9 18.4 22.1 57.2 41.5 139.2
03 22:10 17.6 28 4.2 -1.1 7 7 1012.4 0 10.1 18.6 22.5 58.4 42.9 144.1
03 22:00 18 27 4.15 -1.3 9 11 1010.5 0 10.0 18.4 22.2 57.5 42.1 141.4
03 21:50 18.4 27 4.25 -0.9 11 11 1012.4 0 10.2 18.5 22.5 58.2 43.0 144.6
03 21:40 18.8 26 4.19 -1.1 9 11 1012.4 0 10.1 18.3 22.2 57.4 42.2 141.7
03 21:30 19.2 26 4.29 -0.7 11 13 1010.5 0 10.3 18.3 22.3 57.9 42.9 144.4
03 21:20 19.9 24 4.12 -1.2 9 11 1012.4 0 9.9 18.0 21.7 56.1 40.9 137.4
03 21:10 20.3 24 4.22 -0.9 15 17 1012.4 0 10.1 18.1 21.9 56.7 41.7 140.3
03 21:00 20.4 24 4.25 -0.8 11 17 1010.4 0 10.2 18.0 21.9 56.7 41.9 141.0
03 20:50 21.4 23 4.31 -0.6 9 11 1012.1 0 10.3 18.0 21.9 56.6 42.1 141.6
03 20:40 22.6 22 4.42 -0.2 17 24 1011.9 0 10.5 17.9 21.9 56.7 42.6 143.5
03 20:30 22.7 22 4.44 -0.1 20 30 1009.8 0 10.5 17.8 21.9 56.7 42.6 143.7
03 20:20 22.8 22 4.47 0 20 26 1011.7 0 10.6 17.9 22.0 57.0 42.9 144.9
03 20:10 22.8 23 4.67 0.6 19 28 1011.6 0 11.0 18.1 22.6 58.6 44.9 151.9
03 20:00 22.9 23 4.7 0.7 20 30 1009.7 0 11.0 18.1 22.6 58.6 45.1 152.5
03 19:50 23.2 23 4.78 0.9 22 30 1011.5 0 11.2 18.2 22.8 59.2 45.8 155.1
03 19:40 23.2 23 4.78 0.9 22 26 1011.5 0 11.2 18.2 22.8 59.2 45.8 155.1
03 19:30 23.3 22 4.6 0.4 20 30 1009.5 0 10.8 17.9 22.2 57.5 43.9 148.3
03 19:20 23.6 20 4.25 -0.6 19 22 1011.3 0 10.1 17.5 21.1 54.6 40.4 135.8
03 19:10 23.6 20 4.25 -0.6 19 20 1011 0 10.1 17.4 21.1 54.6 40.3 135.8
03 19:00 24 20 4.35 -0.3 22 35 1009.1 0 10.3 17.4 21.2 55.0 41.1 138.4
03 18:50 23.9 20 4.33 -0.4 19 20 1010.8 0 10.2 17.5 21.3 55.0 41.0 138.1
03 18:40 24.1 19 4.16 -0.9 17 24 1010.7 0 9.9 17.2 20.7 53.6 39.2 131.9
03 18:30 24.4 19 4.23 -0.7 24 39 1008.7 0 10.0 17.2 20.8 53.8 39.7 133.6
03 18:20 24.6 19 4.28 -0.5 26 32 1010.4 0 10.1 17.3 20.9 54.2 40.1 135.2
03 18:10 24.7 18 4.07 -1.2 22 28 1010.3 0 9.7 17.0 20.3 52.5 38.1 127.9
03 18:00 25 17 3.91 -1.7 28 35 1008.3 0 9.3 16.7 19.7 50.9 36.3 121.8
03 17:50 25.1 17 3.94 -1.6 32 37 1010.2 0 9.4 16.8 19.8 51.2 36.6 122.9
03 17:40 25.2 16 3.72 -2.4 28 33 1010 0 8.9 16.5 19.2 49.5 34.5 115.4
03 17:30 25.3 16 3.75 -2.3 22 35 1008.2 0 9.0 16.5 19.2 49.5 34.7 116.1
03 17:20 25.7 16 3.83 -2 22 32 1010 0 9.2 16.6 19.4 50.0 35.3 118.4
03 17:10 26 15 3.65 -2.6 24 32 1010 0 8.8 16.3 18.8 48.5 33.5 112.1
03 17:00 25.9 15 3.63 -2.7 26 41 1008.1 0 8.7 16.2 18.7 48.3 33.3 111.3
03 16:50 26.5 14 3.5 -3.1 26 28 1009.9 0 8.5 16.0 18.3 47.1 32.0 106.6
03 16:40 26.9 14 3.58 -2.8 24 33 1010 0 8.6 16.1 18.4 47.5 32.5 108.6
03 16:30 27.1 13 3.36 -3.7 24 35 1008.1 0 8.2 15.7 17.7 45.6 30.4 101.2
03 16:20 27.2 13 3.38 -3.6 28 35 1009.9 0 8.2 15.8 17.8 45.8 30.6 101.9
03 16:10 27.3 12 3.14 -4.6 26 30 1009.9 0 7.7 15.5 17.1 44.0 28.4 94.1
03 16:00 27.3 12 3.14 -4.6 28 37 1008 0 7.7 15.5 17.1 43.9 28.4 94.0
03 15:50 27.6 12 3.19 -4.3 24 32 1009.7 0 7.8 15.5 17.2 44.2 28.8 95.4
03 15:40 27.8 11 2.96 -5.3 26 37 1010 0 7.3 15.2 16.6 42.5 26.7 88.0
03 15:30 27.8 11 2.96 -5.3 28 37 1008.1 0 7.3 15.2 16.5 42.4 26.6 87.8
03 15:20 27.5 11 2.91 -5.6 30 32 1010 0 7.2 15.2 16.5 42.3 26.3 86.7
03 15:10 27.6 11 2.93 -5.5 26 39 1010.1 0 7.3 15.2 16.5 42.4 26.5 87.3
03 15:00 28 10 2.72 -6.4 26 37 1008.2 0 6.8 14.9 15.8 40.6 24.5 80.2
03 14:50 28 10 2.72 -6.4 26 28 1010.2 0 6.8 15.0 15.9 40.7 24.5 80.4
03 14:40 28.4 10 2.78 -6.1 20 24 1010.3 0 6.9 15.0 16.0 40.9 24.9 81.9
03 14:30 27.9 11 2.98 -5.2 24 33 1008.6 0 7.4 15.2 16.6 42.5 26.8 88.4
03 14:20 28.2 10 2.75 -6.3 22 26 1010.4 0 6.9 15.0 15.9 40.8 24.7 81.1
03 14:10 27.4 10 2.63 -6.9 30 37 1010.5 0 6.7 15.0 15.8 40.4 23.9 78.2
03 14:00 27.8 10 2.69 -6.6 20 33 1008.8 0 6.8 14.9 15.8 40.5 24.3 79.5
03 13:50 27.2 10 2.6 -7 11 19 1011 0 6.6 15.0 15.7 40.3 23.7 77.5
03 13:40 27 10 2.57 -7.2 19 22 1011.1 0 6.5 15.0 15.7 40.2 23.5 76.7
03 13:30 27.9 10 2.7 -6.5 22 35 1009.3 0 6.8 14.9 15.8 40.6 24.4 79.8
03 13:20 27.6 10 2.66 -6.7 30 35 1011.3 0 6.7 15.0 15.8 40.5 24.1 79.0
03 13:10 27.1 10 2.59 -7.1 30 39 1011.5 0 6.6 15.0 15.7 40.3 23.7 77.3
03 13:00 26.5 10 2.5 -7.6 24 33 1010 0 6.4 14.9 15.6 39.8 23.0 74.9
03 12:50 26.6 10 2.52 -7.5 22 24 1012 0 6.4 15.0 15.7 40.1 23.2 75.6
03 12:40 26.1 10 2.45 -7.9 28 33 1012 0 6.3 15.0 15.6 39.8 22.7 73.8
03 12:30 26.4 10 2.49 -7.6 24 35 1010.5 0 6.4 15.0 15.6 39.9 23.0 74.7
03 12:20 26.1 10 2.45 -7.9 19 26 1012.5 0 6.3 15.0 15.6 39.8 22.7 73.9
03 12:10 26.4 10 2.49 -7.6 30 35 1012.6 0 6.4 15.0 15.6 40.0 23.0 74.9

Last Refresh: 04-Aug-2020 06:46:53

Most of the information presented on this site is sourced from the Bureau of Meteorology.  Copyright in all material sourced from the Bureau of Meteorology resides with the Commonwealth of Australia.